Time;durP1;ratioP1;P1;durP2;ratioP2;P2;SDS_P1;SDS_P2;PMS_P1;PMS_P2;Temp;Humidity;BMP_temperature;BMP_pressure;BME280_temperature;BME280_humidity;BME280_pressure;Samples;Min_cycle;Max_cycle;Signal;HPM_P1;HPM_P2
2021/11/02 00:01:07;;;;;;;;;;;;;;;;;;6131852;23;19921;-89
2021/11/02 00:03:36;;;;;;;;;;;;;;;;;;6105646;23;19924;-89
2021/11/02 00:06:04;;;;;;;;;;;;;;;;;;6130478;23;19920;-91
2021/11/02 00:08:33;;;;;;;;;;;;;;;;;;6105714;23;20265;-89
2021/11/02 00:11:01;;;;;;;;;;;;;;;;;;6104382;23;19925;-89
2021/11/02 00:13:34;;;;;;;;;;;;;;;;;;6128456;23;19920;-90
2021/11/02 00:16:10;;;;;;;;;;;;;;;;;;6103910;23;20301;-89
2021/11/02 00:18:44;;;;;;;;;;;;;;;;;;6101435;23;19921;-90
2021/11/02 00:21:13;;;;;;;;;;;;;;;;;;6103196;23;19924;-89
2021/11/02 00:23:42;;;;;;;;;;;;;;;;;;6127920;23;19931;-90
2021/11/02 00:26:11;;;;;;;;;;;;;;;;;;6105548;23;19920;-89
2021/11/02 00:28:40;;;;;;;;;;;;;;;;;;6106342;23;19921;-92
2021/11/02 00:31:10;;;;;;;;;;;;;;;;;;6103855;23;20183;-91
2021/11/02 00:33:39;;;;;;;;;;;;;;;;;;6155187;23;20143;-91
2021/11/02 00:36:07;;;;;;;;;;;;;;;;;;6129056;23;19944;-89
2021/11/02 00:38:35;;;;;;;;;;;;;;;;;;6128005;23;19921;-91
2021/11/02 00:41:03;;;;;;;;;;;;;;;;;;6113550;23;19921;-90
2021/11/02 00:43:35;;;;;;;;;;;;;;;;;;6131566;23;19940;-92
2021/11/02 00:46:04;;;;;;;;;;;;;;;;;;6175785;23;19920;-90
2021/11/02 00:48:34;;;;;;;;;;;;;;;;;;6127824;23;19927;-89
2021/11/02 00:51:02;;;;;;;;;;;;;;;;;;6102587;23;19921;-91
2021/11/02 00:53:31;;;;;;;;;;;;;;;;;;6103043;23;19924;-91
2021/11/02 00:55:59;;;;;;;;;;;;;;;;;;6103006;23;19921;-90
2021/11/02 00:58:27;;;;;;;;;;;;;;;;;;6128223;23;19981;-90
2021/11/02 01:00:55;;;;;;;;;;;;;;;;;;6127196;23;19921;-90
2021/11/02 01:03:24;;;;;;;;;;;;;;;;;;6128240;23;20284;-88
2021/11/02 01:05:53;;;;;;;;;;;;;;;;;;6102905;23;19920;-91
2021/11/02 01:08:27;;;;;;;;;;;;;;;;;;6128432;23;19921;-91
2021/11/02 01:10:56;;;;;;;;;;;;;;;;;;6102877;23;19921;-92
2021/11/02 01:13:28;;;;;;;;;;;;;;;;;;6128474;23;19922;-88
2021/11/02 01:16:07;;;;;;;;;;;;;;;;;;6105799;23;19921;-88
2021/11/02 01:18:36;;;;;;;;;;;;;;;;;;6130780;23;19927;-92
2021/11/02 01:21:06;;;;;;;;;;;;;;;;;;6105149;23;19920;-90
2021/11/02 01:23:36;;;;;;;;;;;;;;;;;;6107204;23;19921;-89
2021/11/02 01:26:04;;;;;;;;;;;;;;;;;;6133928;23;19921;-88
2021/11/02 01:28:33;;;;;;;;;;;;;;;;;;6108638;23;19943;-88
2021/11/02 01:31:02;;;;;;;;;;;;;;;;;;6105859;23;19937;-89
2021/11/02 01:33:31;;;;;;;;;;;;;;;;;;6106200;23;20360;-91
2021/11/02 01:36:00;;;;;;;;;;;;;;;;;;6107252;23;19921;-90
2021/11/02 01:38:30;;;;;;;;;;;;;;;;;;6105963;23;19920;-90
2021/11/02 01:41:07;;;;;;;;;;;;;;;;;;6107585;23;20346;-91
2021/11/02 01:43:35;;;;;;;;;;;;;;;;;;6106672;23;19928;-90
2021/11/02 01:46:05;;;;;;;;;;;;;;;;;;6131722;23;20364;-90
2021/11/02 01:48:37;;;;;;;;;;;;;;;;;;6131227;23;19928;-87
2021/11/02 01:51:06;;;;;;;;;;;;;;;;;;6106804;23;19924;-87
2021/11/02 01:53:42;;;;;;;;;;;;;;;;;;6107070;23;20257;-89
2021/11/02 01:56:12;;;;;;;;;;;;;;;;;;6106816;23;19928;-90
2021/11/02 01:58:43;;;;;;;;;;;;;;;;;;6149229;23;19911;-93
2021/11/02 02:01:12;;;;;;;;;;;;;;;;;;6134330;23;19952;-94
2021/11/02 02:03:44;;;;;;;;;;;;;;;;;;6145648;23;19920;-89
2021/11/02 02:06:20;;;;;;;;;;;;;;;;;;6107006;23;19927;-89
2021/11/02 02:08:53;;;;;;;;;;;;;;;;;;6135820;23;19927;-88
2021/11/02 02:11:31;;;;;;;;;;;;;;;;;;6106444;23;19927;-91
2021/11/02 02:14:01;;;;;;;;;;;;;;;;;;6106616;23;19920;-87
2021/11/02 02:16:32;;;;;;;;;;;;;;;;;;6106529;23;19920;-89
2021/11/02 02:19:04;;;;;;;;;;;;;;;;;;6107019;23;19924;-86
2021/11/02 02:21:38;;;;;;;;;;;;;;;;;;6131389;23;20356;-87
2021/11/02 02:24:14;;;;;;;;;;;;;;;;;;6106083;23;20341;-86
2021/11/02 02:27:13;;;;;;;;;;;;;;;;;;6106202;23;19929;-93
2021/11/02 02:29:43;;;;;;;;;;;;;;;;;;6130529;23;20261;-86
2021/11/02 02:32:16;;;;;;;;;;;;;;;;;;6140971;23;19929;-91
2021/11/02 02:34:45;;;;;;;;;;;;;;;;;;6105828;23;19921;-89
2021/11/02 02:37:13;;;;;;;;;;;;;;;;;;6106236;23;19924;-91
2021/11/02 02:39:49;;;;;;;;;;;;;;;;;;6131431;23;20269;-85
2021/11/02 02:42:22;;;;;;;;;;;;;;;;;;6105642;23;19928;-87
2021/11/02 02:44:52;;;;;;;;;;;;;;;;;;6105143;23;20253;-86
2021/11/02 02:47:22;;;;;;;;;;;;;;;;;;6105879;23;19921;-90
2021/11/02 02:49:50;;;;;;;;;;;;;;;;;;6106082;23;19921;-91
2021/11/02 02:52:18;;;;;;;;;;;;;;;;;;6105807;23;20269;-89
2021/11/02 02:54:53;;;;;;;;;;;;;;;;;;6105432;23;19944;-88
2021/11/02 02:57:22;;;;;;;;;;;;;;;;;;6105337;23;19920;-93
2021/11/02 02:59:54;;;;;;;;;;;;;;;;;;6129876;23;19921;-91
2021/11/02 03:02:24;;;;;;;;;;;;;;;;;;6123547;23;19908;-94
2021/11/02 03:04:54;;;;;;;;;;;;;;;;;;6133148;23;19968;-88
2021/11/02 03:07:24;;;;;;;;;;;;;;;;;;6109771;23;19921;-89
2021/11/02 03:09:57;;;;;;;;;;;;;;;;;;6106746;23;20342;-91
2021/11/02 03:12:27;;;;;;;;;;;;;;;;;;6107028;23;19931;-91
2021/11/02 03:15:10;;;;;;;;;;;;;;;;;;6107816;23;19927;-88
2021/11/02 03:17:44;;;;;;;;;;;;;;;;;;6108047;23;19927;-88
2021/11/02 03:20:45;;;;;;;;;;;;;;;;;;6111484;23;19927;-91
2021/11/02 03:51:14;;;;;;;;;;;;;;;;;;6095174;23;19920;-88
2021/11/02 03:56:42;;;;;;;;;;;;;;;;;;6140647;23;20361;-91
2021/11/02 03:59:32;;;;;;;;;;;;;;;;;;6106782;23;19943;-86
2021/11/02 04:33:26;;;;;;;;;;;;;;;;;;6106231;23;19927;-91
2021/11/02 05:07:29;;;;;;;;;;;;;;;;;;6037907;23;19920;-88
2021/11/02 05:49:17;;;;;;;;;;;;;;;;;;6105797;23;19925;-88
2021/11/02 05:57:29;;;;;;;;;;;;;;;;;;6105313;23;19920;-90
2021/11/02 06:00:22;;;;;;;;;;;;;;;;;;6128645;23;20257;-88
2021/11/02 06:05:48;;;;;;;;;;;;;;;;;;6124820;23;19921;-88
2021/11/02 06:28:01;;;;;;;;;;;;;;;;;;6105807;23;19920;-90
2021/11/02 06:30:36;;;;;;;;;;;;;;;;;;6105749;23;19920;-89
2021/11/02 06:33:14;;;;;;;;;;;;;;;;;;6106060;23;19921;-91
2021/11/02 06:35:51;;;;;;;;;;;;;;;;;;6105139;23;19928;-89
2021/11/02 06:55:36;;;;;;;;;;;;;;;;;;6129150;23;19979;-89
2021/11/02 06:58:37;;;;;;;;;;;;;;;;;;6106524;23;19928;-84
2021/11/02 07:17:58;;;;;;;;;;;;;;;;;;6106922;23;19927;-88
2021/11/02 07:20:33;;;;;;;;;;;;;;;;;;6106616;23;19921;-90
2021/11/02 07:23:13;;;;;;;;;;;;;;;;;;6106068;23;19924;-89
2021/11/02 07:25:50;;;;;;;;;;;;;;;;;;6105545;23;19927;-89
2021/11/02 08:46:02;;;;;;;;;;;;;;;;;;6106131;23;19920;-85
2021/11/02 08:48:32;;;;;;;;;;;;;;;;;;6113083;23;19920;-85
2021/11/02 08:51:00;;;;;;;;;;;;;;;;;;6137225;23;19931;-84
2021/11/02 08:53:29;;;;;;;;;;;;;;;;;;6111232;23;19924;-86
2021/11/02 08:55:58;;;;;;;;;;;;;;;;;;6111049;23;20235;-84
2021/11/02 08:58:27;;;;;;;;;;;;;;;;;;6111706;23;19936;-85
2021/11/02 09:00:56;;;;;;;;;;;;;;;;;;6112930;23;20235;-85
2021/11/02 09:03:26;;;;;;;;;;;;;;;;;;6136961;23;19931;-86
2021/11/02 09:05:56;;;;;;;;;;;;;;;;;;6136508;23;19921;-85
2021/11/02 09:08:25;;;;;;;;;;;;;;;;;;6143299;23;19921;-84
2021/11/02 09:10:53;;;;;;;;;;;;;;;;;;6112159;23;19920;-85
2021/11/02 09:13:22;;;;;;;;;;;;;;;;;;6111422;23;20115;-84
2021/11/02 09:15:51;;;;;;;;;;;;;;;;;;6136299;23;19930;-84
2021/11/02 09:18:20;;;;;;;;;;;;;;;;;;6135048;23;19925;-85
2021/11/02 09:20:50;;;;;;;;;;;;;;;;;;6111574;23;19925;-89
2021/11/02 09:23:20;;;;;;;;;;;;;;;;;;6111514;23;20261;-86
2021/11/02 09:25:51;;;;;;;;;;;;;;;;;;6110827;23;20342;-87
2021/11/02 09:28:20;;;;;;;;;;;;;;;;;;6112071;23;19921;-86
2021/11/02 09:30:48;;;;;;;;;;;;;;;;;;6136481;23;19921;-90
2021/11/02 09:33:18;;;;;;;;;;;;;;;;;;6111764;23;20360;-89
2021/11/02 09:35:47;;;;;;;;;;;;;;;;;;6111178;23;19921;-88
2021/11/02 09:38:17;;;;;;;;;;;;;;;;;;6109844;23;19921;-84
2021/11/02 09:41:03;;;;;;;;;;;;;;;;;;6110637;23;19921;-84
2021/11/02 09:43:54;;;;;;;;;;;;;;;;;;6109249;23;19920;-87
2021/11/02 09:46:42;;;;;;;;;;;;;;;;;;6106492;23;19920;-85
2021/11/02 09:49:26;;;;;;;;;;;;;;;;;;6156836;23;19935;-87
2021/11/02 09:52:09;;;;;;;;;;;;;;;;;;6140162;23;19921;-90
2021/11/02 09:54:45;;;;;;;;;;;;;;;;;;6129340;23;19926;-87
2021/11/02 09:57:21;;;;;;;;;;;;;;;;;;6133115;23;19932;-88
2021/11/02 10:00:06;;;;;;;;;;;;;;;;;;6109165;23;19931;-85
2021/11/02 10:02:50;;;;;;;;;;;;;;;;;;6133899;23;19929;-85
2021/11/02 10:05:26;;;;;;;;;;;;;;;;;;6109310;23;19939;-90
2021/11/02 10:08:05;;;;;;;;;;;;;;;;;;6156724;23;19953;-93
2021/11/02 10:10:39;;;;;;;;;;;;;;;;;;6133009;23;19949;-88
2021/11/02 10:13:10;;;;;;;;;;;;;;;;;;6112131;23;19920;-88
2021/11/02 10:15:45;;;;;;;;;;;;;;;;;;6110362;23;19927;-90
2021/11/02 10:18:21;;;;;;;;;;;;;;;;;;6109297;23;19921;-89
2021/11/02 10:21:07;;;;;;;;;;;;;;;;;;6131639;23;19928;-88
2021/11/02 10:23:40;;;;;;;;;;;;;;;;;;6085246;23;20265;-87
2021/11/02 10:26:33;;;;;;;;;;;;;;;;;;6106954;23;19920;-86
2021/11/02 10:29:20;;;;;;;;;;;;;;;;;;6086394;23;19928;-86
2021/11/02 10:31:54;;;;;;;;;;;;;;;;;;6141286;23;19944;-88
2021/11/02 10:34:26;;;;;;;;;;;;;;;;;;6107082;23;19944;-91
2021/11/02 10:36:57;;;;;;;;;;;;;;;;;;6131666;23;19920;-90
2021/11/02 10:39:32;;;;;;;;;;;;;;;;;;6109679;23;19927;-90
2021/11/02 10:42:08;;;;;;;;;;;;;;;;;;6106317;23;19924;-86
2021/11/02 10:44:39;;;;;;;;;;;;;;;;;;6106659;23;19927;-86
2021/11/02 10:47:10;;;;;;;;;;;;;;;;;;6104538;23;20106;-85
2021/11/02 10:49:46;;;;;;;;;;;;;;;;;;6129509;23;20352;-84
2021/11/02 10:52:16;;;;;;;;;;;;;;;;;;6106257;23;19924;-82
2021/11/02 10:54:52;;;;;;;;;;;;;;;;;;6107043;23;20341;-83
2021/11/02 10:57:36;;;;;;;;;;;;;;;;;;6105752;23;19931;-86
2021/11/02 11:00:05;;;;;;;;;;;;;;;;;;6104952;23;20262;-83
2021/11/02 11:02:37;;;;;;;;;;;;;;;;;;6108641;23;19920;-83
2021/11/02 11:05:06;;;;;;;;;;;;;;;;;;6131740;23;19927;-85
2021/11/02 11:07:35;;;;;;;;;;;;;;;;;;6107237;23;19921;-85
2021/11/02 11:10:04;;;;;;;;;;;;;;;;;;6106697;23;19921;-87
2021/11/02 11:12:35;;;;;;;;;;;;;;;;;;6106463;23;20337;-83
2021/11/02 11:15:04;;;;;;;;;;;;;;;;;;6130521;23;19921;-87
2021/11/02 11:17:33;;;;;;;;;;;;;;;;;;6128885;23;19921;-86
2021/11/02 11:20:08;;;;;;;;;;;;;;;;;;6105469;23;19925;-85
2021/11/02 11:22:37;;;;;;;;;;;;;;;;;;6103445;23;19927;-85
2021/11/02 11:25:06;;;;;;;;;;;;;;;;;;6105165;23;19925;-83
2021/11/02 11:27:34;;;;;;;;;;;;;;;;;;6104685;23;19921;-86
2021/11/02 11:30:05;;;;;;;;;;;;;;;;;;6103768;23;19920;-85
2021/11/02 11:32:35;;;;;;;;;;;;;;;;;;6103160;23;19921;-86
2021/11/02 11:35:04;;;;;;;;;;;;;;;;;;6127754;23;20365;-83
2021/11/02 11:37:35;;;;;;;;;;;;;;;;;;6127870;23;19921;-88
2021/11/02 11:40:05;;;;;;;;;;;;;;;;;;6128036;23;19929;-89
2021/11/02 11:42:34;;;;;;;;;;;;;;;;;;6103237;23;19927;-90
2021/11/02 11:45:05;;;;;;;;;;;;;;;;;;6101643;23;19921;-90
2021/11/02 11:47:34;;;;;;;;;;;;;;;;;;6103174;23;19947;-88
2021/11/02 11:50:16;;;;;;;;;;;;;;;;;;6105142;23;19920;-89
2021/11/02 11:52:50;;;;;;;;;;;;;;;;;;6130891;23;19920;-88
2021/11/02 11:55:25;;;;;;;;;;;;;;;;;;6105765;23;20249;-88
2021/11/02 11:58:04;;;;;;;;;;;;;;;;;;6102951;23;19928;-88
2021/11/02 12:00:33;;;;;;;;;;;;;;;;;;6102196;23;19936;-90
2021/11/02 12:03:04;;;;;;;;;;;;;;;;;;6101814;23;19943;-91
2021/11/02 12:05:33;;;;;;;;;;;;;;;;;;6102409;23;20453;-90
2021/11/02 12:08:07;;;;;;;;;;;;;;;;;;6127095;23;20501;-90
2021/11/02 12:10:37;;;;;;;;;;;;;;;;;;6102120;23;19921;-92
2021/11/02 12:13:06;;;;;;;;;;;;;;;;;;6103056;23;19932;-92
2021/11/02 12:15:42;;;;;;;;;;;;;;;;;;6127276;23;19920;-91
2021/11/02 12:18:15;;;;;;;;;;;;;;;;;;6078277;23;20372;-91
2021/11/02 12:20:45;;;;;;;;;;;;;;;;;;6128307;23;19920;-90
2021/11/02 12:23:21;;;;;;;;;;;;;;;;;;6127166;23;19969;-92
2021/11/02 12:25:51;;;;;;;;;;;;;;;;;;6103380;23;19921;-87
2021/11/02 12:28:31;;;;;;;;;;;;;;;;;;6130246;23;19921;-87
2021/11/02 12:31:00;;;;;;;;;;;;;;;;;;6116826;23;19908;-93
2021/11/02 12:33:29;;;;;;;;;;;;;;;;;;6152435;23;19921;-92
2021/11/02 12:36:02;;;;;;;;;;;;;;;;;;6140426;23;19920;-93
2021/11/02 12:38:34;;;;;;;;;;;;;;;;;;6107432;23;19921;-93
2021/11/02 12:41:17;;;;;;;;;;;;;;;;;;6144740;23;19925;-92
2021/11/02 12:43:47;;;;;;;;;;;;;;;;;;6111976;23;19927;-92
2021/11/02 12:46:19;;;;;;;;;;;;;;;;;;6118077;23;19930;-91
2021/11/02 12:48:47;;;;;;;;;;;;;;;;;;6142325;23;20252;-92
2021/11/02 12:51:19;;;;;;;;;;;;;;;;;;6141767;23;19921;-90
2021/11/02 12:53:58;;;;;;;;;;;;;;;;;;6105442;23;19927;-89
2021/11/02 12:56:28;;;;;;;;;;;;;;;;;;6104933;23;19921;-90
2021/11/02 12:59:01;;;;;;;;;;;;;;;;;;6105194;23;19927;-89
2021/11/02 13:01:33;;;;;;;;;;;;;;;;;;6104228;23;20253;-88
2021/11/02 13:04:03;;;;;;;;;;;;;;;;;;6104368;23;19920;-91
2021/11/02 13:06:38;;;;;;;;;;;;;;;;;;6103944;23;19921;-91
2021/11/02 13:09:08;;;;;;;;;;;;;;;;;;6102692;23;20230;-86
2021/11/02 13:11:36;;;;;;;;;;;;;;;;;;6103465;23;20253;-89
2021/11/02 13:14:11;;;;;;;;;;;;;;;;;;6102771;23;19920;-90
2021/11/02 13:16:59;;;;;;;;;;;;;;;;;;6103774;23;20281;-89
2021/11/02 13:19:34;;;;;;;;;;;;;;;;;;6104655;23;19924;-91
2021/11/02 13:22:06;;;;;;;;;;;;;;;;;;6104080;23;19925;-87
2021/11/02 13:24:36;;;;;;;;;;;;;;;;;;6103545;23;19921;-89
2021/11/02 13:27:06;;;;;;;;;;;;;;;;;;6128815;23;19953;-89
2021/11/02 13:29:35;;;;;;;;;;;;;;;;;;6102434;23;19931;-88
2021/11/02 13:32:04;;;;;;;;;;;;;;;;;;6128767;23;19929;-91
2021/11/02 13:34:36;;;;;;;;;;;;;;;;;;6127117;23;19928;-92
2021/11/02 13:37:06;;;;;;;;;;;;;;;;;;6126209;23;19920;-89
2021/11/02 13:39:52;;;;;;;;;;;;;;;;;;6106963;23;19931;-91
2021/11/02 13:42:23;;;;;;;;;;;;;;;;;;6128861;23;19924;-92
2021/11/02 13:44:54;;;;;;;;;;;;;;;;;;6103112;23;20235;-89
2021/11/02 13:47:24;;;;;;;;;;;;;;;;;;6128300;23;19925;-89
2021/11/02 13:49:52;;;;;;;;;;;;;;;;;;6128381;23;19921;-86
2021/11/02 13:52:20;;;;;;;;;;;;;;;;;;6103684;23;19920;-90
2021/11/02 13:54:48;;;;;;;;;;;;;;;;;;6103706;23;19924;-91
2021/11/02 13:57:19;;;;;;;;;;;;;;;;;;6103745;23;19920;-91
2021/11/02 13:59:47;;;;;;;;;;;;;;;;;;6130132;23;20257;-84
2021/11/02 14:02:16;;;;;;;;;;;;;;;;;;6104260;23;19920;-89
2021/11/02 14:04:44;;;;;;;;;;;;;;;;;;6129693;23;20345;-88
2021/11/02 14:07:13;;;;;;;;;;;;;;;;;;6105497;23;19927;-87
2021/11/02 14:09:53;;;;;;;;;;;;;;;;;;6105285;23;20365;-90
2021/11/02 14:12:25;;;;;;;;;;;;;;;;;;6107066;23;19928;-91
2021/11/02 14:14:53;;;;;;;;;;;;;;;;;;6105513;23;19928;-89
2021/11/02 14:17:22;;;;;;;;;;;;;;;;;;6104577;23;19978;-88
2021/11/02 14:19:55;;;;;;;;;;;;;;;;;;6104737;23;19943;-90
2021/11/02 14:22:38;;;;;;;;;;;;;;;;;;6104558;23;19928;-85
2021/11/02 14:25:10;;;;;;;;;;;;;;;;;;6104149;23;19928;-90
2021/11/02 14:27:43;;;;;;;;;;;;;;;;;;6105295;23;19924;-91
2021/11/02 14:30:18;;;;;;;;;;;;;;;;;;6128453;23;20532;-90
2021/11/02 14:33:43;;;;;;;;;;;;;;;;;;6129303;23;19920;-89
2021/11/02 14:36:13;;;;;;;;;;;;;;;;;;6103792;23;19926;-90
2021/11/02 14:38:45;;;;;;;;;;;;;;;;;;6103903;23;19921;-88
2021/11/02 14:41:28;;;;;;;;;;;;;;;;;;6128077;23;19928;-89
2021/11/02 14:44:13;;;;;;;;;;;;;;;;;;6104951;23;19932;-90
2021/11/02 14:46:43;;;;;;;;;;;;;;;;;;6123554;23;19932;-88
2021/11/02 14:49:16;;;;;;;;;;;;;;;;;;6102525;23;19921;-88
2021/11/02 14:51:56;;;;;;;;;;;;;;;;;;6136922;23;19925;-89
2021/11/02 14:54:29;;;;;;;;;;;;;;;;;;6102342;23;19931;-91
2021/11/02 14:57:34;;;;;;;;;;;;;;;;;;6132813;23;19960;-92
2021/11/02 15:00:04;;;;;;;;;;;;;;;;;;6144946;23;19921;-91
2021/11/02 15:02:43;;;;;;;;;;;;;;;;;;6105882;23;19927;-91
2021/11/02 15:05:20;;;;;;;;;;;;;;;;;;6106278;23;20337;-91
2021/11/02 15:07:50;;;;;;;;;;;;;;;;;;6106309;23;19921;-89
2021/11/02 15:10:25;;;;;;;;;;;;;;;;;;6105079;23;19920;-90
2021/11/02 15:12:58;;;;;;;;;;;;;;;;;;6105291;23;19920;-92
2021/11/02 15:15:37;;;;;;;;;;;;;;;;;;6104558;23;19921;-87
2021/11/02 15:18:15;;;;;;;;;;;;;;;;;;6104757;23;19928;-90
2021/11/02 15:20:52;;;;;;;;;;;;;;;;;;6104498;23;19920;-90
2021/11/02 15:23:31;;;;;;;;;;;;;;;;;;6104839;23;19928;-90
2021/11/02 15:27:01;;;;;;;;;;;;;;;;;;;;;
2021/11/02 15:29:33;;;;;;;;;;;;;;;;;;6103566;23;19921;-91
2021/11/02 15:32:03;;;;;;;;;;;;;;;;;;6105655;23;19931;-91
2021/11/02 15:34:41;;;;;;;;;;;;;;;;;;6104755;23;19920;-91
2021/11/02 15:37:14;;;;;;;;;;;;;;;;;;6104098;23;19921;-90
2021/11/02 15:39:55;;;;;;;;;;;;;;;;;;6103593;23;19920;-88
2021/11/02 15:42:31;;;;;;;;;;;;;;;;;;6100617;23;20249;-91
2021/11/02 15:45:12;;;;;;;;;;;;;;;;;;6098728;23;19921;-89
2021/11/02 15:47:48;;;;;;;;;;;;;;;;;;6103982;23;19927;-91
2021/11/02 15:50:27;;;;;;;;;;;;;;;;;;6103474;23;19924;-89
2021/11/02 15:52:57;;;;;;;;;;;;;;;;;;6103640;23;19925;-88
2021/11/02 15:55:26;;;;;;;;;;;;;;;;;;6103713;23;19925;-87
2021/11/02 15:58:01;;;;;;;;;;;;;;;;;;6103494;23;19928;-91
2021/11/02 16:00:33;;;;;;;;;;;;;;;;;;6104350;23;19927;-90
2021/11/02 16:03:02;;;;;;;;;;;;;;;;;;6105122;23;19925;-92
2021/11/02 16:05:33;;;;;;;;;;;;;;;;;;6103935;23;20261;-88
2021/11/02 16:08:14;;;;;;;;;;;;;;;;;;6104647;23;19925;-90
2021/11/02 16:10:42;;;;;;;;;;;;;;;;;;6104193;23;20415;-90
2021/11/02 16:13:11;;;;;;;;;;;;;;;;;;6129391;23;19920;-91
2021/11/02 16:15:40;;;;;;;;;;;;;;;;;;6103910;23;19928;-91
2021/11/02 16:18:15;;;;;;;;;;;;;;;;;;6104503;23;19921;-88
2021/11/02 16:20:45;;;;;;;;;;;;;;;;;;6129304;23;20270;-87
2021/11/02 16:23:14;;;;;;;;;;;;;;;;;;6105347;23;19925;-88
2021/11/02 16:25:59;;;;;;;;;;;;;;;;;;6106860;23;19920;-91
2021/11/02 16:28:28;;;;;;;;;;;;;;;;;;6132406;23;19952;-91
2021/11/02 16:30:57;;;;;;;;;;;;;;;;;;6132897;23;19961;-94
2021/11/02 16:33:33;;;;;;;;;;;;;;;;;;6122332;23;20144;-91
2021/11/02 16:36:15;;;;;;;;;;;;;;;;;;6110519;23;19929;-92
2021/11/02 16:38:44;;;;;;;;;;;;;;;;;;6127622;23;19927;-91
2021/11/02 16:41:19;;;;;;;;;;;;;;;;;;6126666;23;19921;-93
2021/11/02 16:43:49;;;;;;;;;;;;;;;;;;6148615;23;19920;-91
2021/11/02 16:46:22;;;;;;;;;;;;;;;;;;6123418;23;19931;-92
2021/11/02 16:48:50;;;;;;;;;;;;;;;;;;6123145;23;19908;-91
2021/11/02 16:51:22;;;;;;;;;;;;;;;;;;6104083;23;19928;-92
2021/11/02 16:53:52;;;;;;;;;;;;;;;;;;6105019;23;20423;-91
2021/11/02 16:56:22;;;;;;;;;;;;;;;;;;6129214;23;19927;-91
2021/11/02 16:58:52;;;;;;;;;;;;;;;;;;6107460;23;19920;-91
2021/11/02 17:01:25;;;;;;;;;;;;;;;;;;6106302;23;20250;-91
2021/11/02 17:03:55;;;;;;;;;;;;;;;;;;6104456;23;19927;-90
2021/11/02 17:06:29;;;;;;;;;;;;;;;;;;6127760;23;19927;-89
2021/11/02 17:09:11;;;;;;;;;;;;;;;;;;6103795;23;19921;-90
2021/11/02 17:11:47;;;;;;;;;;;;;;;;;;6103828;23;19921;-91
2021/11/02 17:14:16;;;;;;;;;;;;;;;;;;6129117;23;19921;-91
2021/11/02 17:16:46;;;;;;;;;;;;;;;;;;6104601;23;19931;-91
2021/11/02 17:19:14;;;;;;;;;;;;;;;;;;6107374;23;19927;-93
2021/11/02 17:21:44;;;;;;;;;;;;;;;;;;6132382;23;19956;-93
2021/11/02 17:24:12;;;;;;;;;;;;;;;;;;6127934;23;19927;-90
2021/11/02 17:26:41;;;;;;;;;;;;;;;;;;6104495;23;20231;-91
2021/11/02 17:29:10;;;;;;;;;;;;;;;;;;6104036;23;19953;-90
2021/11/02 17:31:39;;;;;;;;;;;;;;;;;;6129394;23;19921;-91
2021/11/02 17:34:08;;;;;;;;;;;;;;;;;;6129484;23;19921;-92
2021/11/02 17:36:36;;;;;;;;;;;;;;;;;;6128272;23;19920;-92
2021/11/02 17:39:06;;;;;;;;;;;;;;;;;;6104153;23;19921;-90
2021/11/02 17:41:35;;;;;;;;;;;;;;;;;;6104091;23;19921;-89
2021/11/02 17:44:04;;;;;;;;;;;;;;;;;;6103064;23;19928;-89
2021/11/02 17:46:34;;;;;;;;;;;;;;;;;;6103524;23;20195;-91
2021/11/02 17:49:02;;;;;;;;;;;;;;;;;;6103577;23;19920;-90
2021/11/02 17:51:31;;;;;;;;;;;;;;;;;;6103620;23;19921;-88
2021/11/02 17:53:59;;;;;;;;;;;;;;;;;;6103974;23;19921;-90
2021/11/02 17:56:29;;;;;;;;;;;;;;;;;;6128076;23;19921;-89
2021/11/02 17:59:00;;;;;;;;;;;;;;;;;;6103516;23;20327;-89
2021/11/02 18:01:31;;;;;;;;;;;;;;;;;;6103384;23;19921;-91
2021/11/02 18:04:00;;;;;;;;;;;;;;;;;;6103562;23;19927;-90
2021/11/02 18:06:29;;;;;;;;;;;;;;;;;;6103347;23;20346;-91
2021/11/02 18:08:57;;;;;;;;;;;;;;;;;;6128001;23;19932;-90
2021/11/02 18:11:26;;;;;;;;;;;;;;;;;;6103436;23;19928;-91
2021/11/02 18:13:56;;;;;;;;;;;;;;;;;;6103595;23;20134;-89
2021/11/02 18:16:25;;;;;;;;;;;;;;;;;;6105043;23;20253;-92
2021/11/02 18:18:59;;;;;;;;;;;;;;;;;;6104698;23;19928;-91
2021/11/02 18:21:28;;;;;;;;;;;;;;;;;;6105320;23;19931;-89
2021/11/02 18:24:03;;;;;;;;;;;;;;;;;;6105249;23;19921;-93
2021/11/02 18:26:31;;;;;;;;;;;;;;;;;;6105301;23;19921;-92
2021/11/02 18:29:01;;;;;;;;;;;;;;;;;;6105474;23;19920;-90
2021/11/02 18:31:30;;;;;;;;;;;;;;;;;;6129576;23;19921;-91
2021/11/02 18:33:59;;;;;;;;;;;;;;;;;;6104956;23;19921;-88
2021/11/02 18:36:27;;;;;;;;;;;;;;;;;;6105165;23;19924;-91
2021/11/02 18:38:55;;;;;;;;;;;;;;;;;;6105011;23;19924;-93
2021/11/02 18:41:24;;;;;;;;;;;;;;;;;;6104668;23;19921;-89
2021/11/02 18:43:53;;;;;;;;;;;;;;;;;;6106552;23;20251;-92
2021/11/02 18:46:23;;;;;;;;;;;;;;;;;;6105919;23;19921;-91
2021/11/02 18:48:52;;;;;;;;;;;;;;;;;;6130596;23;19920;-90
2021/11/02 18:51:20;;;;;;;;;;;;;;;;;;6131486;23;19944;-92
2021/11/02 18:53:49;;;;;;;;;;;;;;;;;;6107923;23;19928;-92
2021/11/02 18:56:19;;;;;;;;;;;;;;;;;;6108932;23;19927;-92
2021/11/02 18:58:48;;;;;;;;;;;;;;;;;;6108194;23;19932;-91
2021/11/02 19:01:18;;;;;;;;;;;;;;;;;;6108262;23;19931;-92
2021/11/02 19:03:51;;;;;;;;;;;;;;;;;;6109296;23;20482;-91
2021/11/02 19:06:19;;;;;;;;;;;;;;;;;;6109504;23;19920;-92
2021/11/02 19:08:47;;;;;;;;;;;;;;;;;;6109307;23;19927;-91
2021/11/02 19:11:16;;;;;;;;;;;;;;;;;;6108451;23;19921;-91
2021/11/02 19:13:45;;;;;;;;;;;;;;;;;;6109246;23;19921;-92
2021/11/02 19:16:14;;;;;;;;;;;;;;;;;;6108057;23;20257;-91
2021/11/02 19:18:42;;;;;;;;;;;;;;;;;;6107273;23;19921;-92
2021/11/02 19:21:12;;;;;;;;;;;;;;;;;;6107575;23;20318;-93
2021/11/02 19:23:44;;;;;;;;;;;;;;;;;;6107579;23;19928;-93
2021/11/02 19:26:13;;;;;;;;;;;;;;;;;;6105544;23;19929;-91
2021/11/02 19:28:42;;;;;;;;;;;;;;;;;;6105716;23;19940;-92
2021/11/02 19:31:12;;;;;;;;;;;;;;;;;;6104659;23;19932;-93
2021/11/02 19:33:42;;;;;;;;;;;;;;;;;;6105142;23;19920;-92
2021/11/02 19:36:10;;;;;;;;;;;;;;;;;;6104912;23;19924;-91
2021/11/02 19:38:41;;;;;;;;;;;;;;;;;;6105666;23;19932;-91
2021/11/02 19:41:10;;;;;;;;;;;;;;;;;;6107863;23;19927;-91
2021/11/02 19:43:40;;;;;;;;;;;;;;;;;;6106933;23;19924;-91
2021/11/02 19:46:11;;;;;;;;;;;;;;;;;;6126993;23;19931;-94
2021/11/02 19:48:50;;;;;;;;;;;;;;;;;;6124975;23;19954;-93
2021/11/02 19:51:19;;;;;;;;;;;;;;;;;;6105912;23;20253;-90
2021/11/02 19:53:53;;;;;;;;;;;;;;;;;;6106266;23;19927;-86
2021/11/02 19:56:22;;;;;;;;;;;;;;;;;;6106578;23;19935;-92
2021/11/02 19:58:51;;;;;;;;;;;;;;;;;;6106584;23;19927;-92
2021/11/02 20:01:20;;;;;;;;;;;;;;;;;;6106556;23;19920;-91
2021/11/02 20:03:50;;;;;;;;;;;;;;;;;;6106563;23;20020;-92
2021/11/02 20:06:22;;;;;;;;;;;;;;;;;;6106833;23;19925;-92
2021/11/02 20:08:53;;;;;;;;;;;;;;;;;;6110655;23;19921;-92
2021/11/02 20:11:22;;;;;;;;;;;;;;;;;;6116015;23;19924;-94
2021/11/02 20:13:51;;;;;;;;;;;;;;;;;;6156420;23;19948;-94
2021/11/02 20:16:19;;;;;;;;;;;;;;;;;;6119488;23;19920;-92
2021/11/02 20:18:54;;;;;;;;;;;;;;;;;;6128941;23;19920;-93
2021/11/02 20:21:23;;;;;;;;;;;;;;;;;;6153965;23;19927;-93
2021/11/02 20:23:53;;;;;;;;;;;;;;;;;;6129260;23;19925;-94
2021/11/02 20:26:22;;;;;;;;;;;;;;;;;;6120457;23;19976;-90
2021/11/02 20:28:51;;;;;;;;;;;;;;;;;;6116773;23;19920;-92
2021/11/02 20:31:19;;;;;;;;;;;;;;;;;;6115822;23;19927;-93
2021/11/02 20:34:14;;;;;;;;;;;;;;;;;;6108919;23;20257;-91
2021/11/02 20:37:03;;;;;;;;;;;;;;;;;;6133745;23;20245;-91
2021/11/02 20:39:35;;;;;;;;;;;;;;;;;;6107397;23;19921;-91
2021/11/02 20:42:04;;;;;;;;;;;;;;;;;;6107177;23;19927;-92
2021/11/02 20:44:33;;;;;;;;;;;;;;;;;;6105364;23;19920;-90
2021/11/02 20:47:03;;;;;;;;;;;;;;;;;;6105698;23;20396;-89
2021/11/02 20:49:33;;;;;;;;;;;;;;;;;;6105121;23;20342;-89
2021/11/02 20:52:03;;;;;;;;;;;;;;;;;;6105417;23;20356;-92
2021/11/02 20:54:32;;;;;;;;;;;;;;;;;;6105536;23;19921;-90
2021/11/02 20:57:02;;;;;;;;;;;;;;;;;;6105271;23;19920;-92
2021/11/02 20:59:30;;;;;;;;;;;;;;;;;;6129097;23;19928;-92
2021/11/02 21:01:59;;;;;;;;;;;;;;;;;;6104907;23;20361;-92
2021/11/02 21:04:27;;;;;;;;;;;;;;;;;;6107928;23;19921;-90
2021/11/02 21:06:56;;;;;;;;;;;;;;;;;;6106092;23;19928;-91
2021/11/02 21:09:27;;;;;;;;;;;;;;;;;;6105517;23;19921;-93
2021/11/02 21:11:57;;;;;;;;;;;;;;;;;;6106305;23;19920;-91
2021/11/02 21:14:28;;;;;;;;;;;;;;;;;;6105439;23;19927;-91
2021/11/02 21:16:57;;;;;;;;;;;;;;;;;;6106516;23;19921;-90
2021/11/02 21:19:27;;;;;;;;;;;;;;;;;;6108065;23;19921;-93
2021/11/02 21:22:15;;;;;;;;;;;;;;;;;;6114504;23;19920;-93
2021/11/02 21:24:44;;;;;;;;;;;;;;;;;;6112879;23;19921;-93
2021/11/02 21:27:12;;;;;;;;;;;;;;;;;;6137806;23;19921;-91
2021/11/02 21:29:43;;;;;;;;;;;;;;;;;;6112719;23;19951;-93
2021/11/02 21:32:12;;;;;;;;;;;;;;;;;;6113384;23;19927;-92
2021/11/02 21:34:43;;;;;;;;;;;;;;;;;;6115380;23;19921;-94
2021/11/02 21:37:12;;;;;;;;;;;;;;;;;;6119872;23;19931;-92
2021/11/02 21:39:40;;;;;;;;;;;;;;;;;;6110043;23;19924;-92
2021/11/02 21:42:14;;;;;;;;;;;;;;;;;;6105966;23;19921;-91
2021/11/02 21:44:45;;;;;;;;;;;;;;;;;;6106675;23;19920;-92
2021/11/02 21:47:16;;;;;;;;;;;;;;;;;;6107020;23;19921;-92
2021/11/02 21:49:51;;;;;;;;;;;;;;;;;;6109597;23;19920;-91
2021/11/02 21:52:19;;;;;;;;;;;;;;;;;;6108342;23;20358;-91
2021/11/02 21:54:48;;;;;;;;;;;;;;;;;;6109187;23;20105;-91